sensor_id;sensor_type;location;lat;lon;timestamp;pressure;altitude;pressure_sealevel;temperature;humidity
56038;BME280;41907;47.848;9.000;2023-04-15T00:01:51;94789.25;;;2.35;100.00
56038;BME280;41907;47.848;9.000;2023-04-15T00:04:16;94780.59;;;2.30;100.00
56038;BME280;41907;47.848;9.000;2023-04-15T00:06:42;94778.31;;;2.18;100.00
56038;BME280;41907;47.848;9.000;2023-04-15T00:09:07;94778.25;;;1.99;100.00
56038;BME280;41907;47.848;9.000;2023-04-15T00:11:32;94780.06;;;2.04;100.00
56038;BME280;41907;47.848;9.000;2023-04-15T00:13:58;94777.09;;;2.10;100.00
56038;BME280;41907;47.848;9.000;2023-04-15T00:16:23;94780.94;;;1.94;100.00
56038;BME280;41907;47.848;9.000;2023-04-15T00:18:48;94771.41;;;1.69;100.00
56038;BME280;41907;47.848;9.000;2023-04-15T00:21:13;94777.53;;;1.55;100.00
56038;BME280;41907;47.848;9.000;2023-04-15T00:23:39;94781.03;;;1.45;100.00
56038;BME280;41907;47.848;9.000;2023-04-15T00:26:04;94781.53;;;1.47;100.00
56038;BME280;41907;47.848;9.000;2023-04-15T00:28:29;94783.38;;;1.46;100.00
56038;BME280;41907;47.848;9.000;2023-04-15T00:30:55;94783.13;;;1.48;100.00
56038;BME280;41907;47.848;9.000;2023-04-15T00:33:20;94785.75;;;1.48;100.00
56038;BME280;41907;47.848;9.000;2023-04-15T00:35:45;94775.19;;;1.53;100.00
56038;BME280;41907;47.848;9.000;2023-04-15T00:38:11;94781.81;;;1.45;100.00
56038;BME280;41907;47.848;9.000;2023-04-15T00:40:36;94787.41;;;1.34;100.00
56038;BME280;41907;47.848;9.000;2023-04-15T00:43:01;94784.56;;;1.30;100.00
56038;BME280;41907;47.848;9.000;2023-04-15T00:45:28;94784.81;;;1.29;100.00
56038;BME280;41907;47.848;9.000;2023-04-15T00:47:53;94786.72;;;1.18;100.00
56038;BME280;41907;47.848;9.000;2023-04-15T00:50:19;94778.88;;;1.13;100.00
56038;BME280;41907;47.848;9.000;2023-04-15T00:52:44;94781.78;;;1.11;100.00
56038;BME280;41907;47.848;9.000;2023-04-15T00:55:10;94781.31;;;0.99;100.00
56038;BME280;41907;47.848;9.000;2023-04-15T00:57:35;94780.78;;;0.97;100.00
56038;BME280;41907;47.848;9.000;2023-04-15T01:00:00;94777.41;;;0.92;100.00
56038;BME280;41907;47.848;9.000;2023-04-15T01:02:26;94784.50;;;0.91;100.00
56038;BME280;41907;47.848;9.000;2023-04-15T01:04:52;94777.66;;;0.90;100.00
56038;BME280;41907;47.848;9.000;2023-04-15T01:07:17;94776.09;;;0.89;100.00
56038;BME280;41907;47.848;9.000;2023-04-15T01:09:42;94777.63;;;1.00;100.00
56038;BME280;41907;47.848;9.000;2023-04-15T01:12:11;94784.34;;;1.22;100.00
56038;BME280;41907;47.848;9.000;2023-04-15T01:14:36;94785.81;;;1.38;100.00
56038;BME280;41907;47.848;9.000;2023-04-15T01:17:02;94793.22;;;1.31;100.00
56038;BME280;41907;47.848;9.000;2023-04-15T01:19:27;94792.72;;;1.24;100.00
56038;BME280;41907;47.848;9.000;2023-04-15T01:21:52;94785.13;;;1.22;100.00
56038;BME280;41907;47.848;9.000;2023-04-15T01:24:18;94787.03;;;1.11;100.00
56038;BME280;41907;47.848;9.000;2023-04-15T01:26:43;94794.84;;;1.22;100.00
56038;BME280;41907;47.848;9.000;2023-04-15T01:29:09;94797.91;;;1.39;100.00
56038;BME280;41907;47.848;9.000;2023-04-15T01:31:34;94793.91;;;1.46;100.00
56038;BME280;41907;47.848;9.000;2023-04-15T01:34:00;94787.06;;;1.51;100.00
56038;BME280;41907;47.848;9.000;2023-04-15T01:36:25;94786.47;;;1.54;100.00
56038;BME280;41907;47.848;9.000;2023-04-15T01:38:50;94787.53;;;1.58;100.00
56038;BME280;41907;47.848;9.000;2023-04-15T01:41:16;94786.47;;;1.54;100.00
56038;BME280;41907;47.848;9.000;2023-04-15T01:43:41;94787.53;;;1.58;100.00
56038;BME280;41907;47.848;9.000;2023-04-15T01:46:06;94788.81;;;1.60;100.00
56038;BME280;41907;47.848;9.000;2023-04-15T01:48:32;94782.25;;;1.58;100.00
56038;BME280;41907;47.848;9.000;2023-04-15T01:50:58;94781.22;;;1.54;100.00
56038;BME280;41907;47.848;9.000;2023-04-15T01:53:23;94790.03;;;1.34;100.00
56038;BME280;41907;47.848;9.000;2023-04-15T01:55:49;94790.66;;;1.16;100.00
56038;BME280;41907;47.848;9.000;2023-04-15T01:58:14;94799.31;;;1.21;100.00
56038;BME280;41907;47.848;9.000;2023-04-15T02:00:40;94795.44;;;1.08;100.00
56038;BME280;41907;47.848;9.000;2023-04-15T02:03:05;94791.84;;;0.94;100.00
56038;BME280;41907;47.848;9.000;2023-04-15T02:05:30;94795.53;;;0.88;100.00
56038;BME280;41907;47.848;9.000;2023-04-15T02:07:56;94789.78;;;0.81;100.00
56038;BME280;41907;47.848;9.000;2023-04-15T02:10:21;94797.16;;;0.74;100.00
56038;BME280;41907;47.848;9.000;2023-04-15T02:12:47;94787.47;;;0.69;100.00
56038;BME280;41907;47.848;9.000;2023-04-15T02:15:12;94801.63;;;0.73;100.00
56038;BME280;41907;47.848;9.000;2023-04-15T02:17:38;94792.47;;;0.66;100.00
56038;BME280;41907;47.848;9.000;2023-04-15T02:20:03;94800.34;;;0.61;100.00
56038;BME280;41907;47.848;9.000;2023-04-15T02:22:32;94799.31;;;0.62;100.00
56038;BME280;41907;47.848;9.000;2023-04-15T02:24:58;94792.78;;;0.54;100.00
56038;BME280;41907;47.848;9.000;2023-04-15T02:27:23;94796.44;;;0.53;100.00
56038;BME280;41907;47.848;9.000;2023-04-15T02:29:48;94796.44;;;0.53;100.00
56038;BME280;41907;47.848;9.000;2023-04-15T02:32:15;94795.66;;;0.48;100.00
56038;BME280;41907;47.848;9.000;2023-04-15T02:34:40;94793.59;;;0.45;100.00
56038;BME280;41907;47.848;9.000;2023-04-15T02:37:07;94794.38;;;0.45;100.00
56038;BME280;41907;47.848;9.000;2023-04-15T02:39:32;94799.06;;;0.48;100.00
56038;BME280;41907;47.848;9.000;2023-04-15T02:41:58;94790.94;;;0.55;100.00
56038;BME280;41907;47.848;9.000;2023-04-15T02:44:24;94786.72;;;0.49;100.00
56038;BME280;41907;47.848;9.000;2023-04-15T02:46:50;94785.44;;;0.46;100.00
56038;BME280;41907;47.848;9.000;2023-04-15T02:49:16;94790.66;;;0.56;100.00
56038;BME280;41907;47.848;9.000;2023-04-15T02:51:42;94795.88;;;0.61;100.00
56038;BME280;41907;47.848;9.000;2023-04-15T02:54:07;94789.66;;;0.47;100.00
56038;BME280;41907;47.848;9.000;2023-04-15T02:56:32;94783.88;;;0.45;100.00
56038;BME280;41907;47.848;9.000;2023-04-15T02:58:58;94784.94;;;0.39;100.00
56038;BME280;41907;47.848;9.000;2023-04-15T03:01:23;94785.75;;;0.34;100.00
56038;BME280;41907;47.848;9.000;2023-04-15T03:03:48;94793.34;;;0.36;100.00
56038;BME280;41907;47.848;9.000;2023-04-15T03:06:13;94797.53;;;0.37;100.00
56038;BME280;41907;47.848;9.000;2023-04-15T03:08:39;94799.09;;;0.38;100.00
56038;BME280;41907;47.848;9.000;2023-04-15T03:11:04;94805.66;;;0.30;100.00
56038;BME280;41907;47.848;9.000;2023-04-15T03:13:29;94810.94;;;0.25;100.00
56038;BME280;41907;47.848;9.000;2023-04-15T03:15:54;94802.28;;;0.25;100.00
56038;BME280;41907;47.848;9.000;2023-04-15T03:18:19;94803.34;;;0.19;100.00
56038;BME280;41907;47.848;9.000;2023-04-15T03:20:45;94805.44;;;0.17;100.00
56038;BME280;41907;47.848;9.000;2023-04-15T03:23:10;94802.03;;;0.11;100.00
56038;BME280;41907;47.848;9.000;2023-04-15T03:25:36;94806.00;;;-0.02;100.00
56038;BME280;41907;47.848;9.000;2023-04-15T03:28:02;94807.56;;;-0.11;100.00
56038;BME280;41907;47.848;9.000;2023-04-15T03:30:27;94810.97;;;-0.15;100.00
56038;BME280;41907;47.848;9.000;2023-04-15T03:32:52;94812.53;;;-0.14;100.00
56038;BME280;41907;47.848;9.000;2023-04-15T03:35:18;94803.13;;;-0.10;100.00
56038;BME280;41907;47.848;9.000;2023-04-15T03:37:43;94802.84;;;-0.04;100.00
56038;BME280;41907;47.848;9.000;2023-04-15T03:40:08;94791.28;;;0.03;100.00
56038;BME280;41907;47.848;9.000;2023-04-15T03:42:34;94799.16;;;0.03;100.00
56038;BME280;41907;47.848;9.000;2023-04-15T03:44:59;94791.03;;;0.04;100.00
56038;BME280;41907;47.848;9.000;2023-04-15T03:47:24;94786.84;;;0.03;100.00
56038;BME280;41907;47.848;9.000;2023-04-15T03:49:50;94794.97;;;0.07;100.00
56038;BME280;41907;47.848;9.000;2023-04-15T03:52:15;94796.53;;;0.08;100.00
56038;BME280;41907;47.848;9.000;2023-04-15T03:54:40;94794.44;;;0.15;100.00
56038;BME280;41907;47.848;9.000;2023-04-15T03:57:05;94799.41;;;0.16;100.00
56038;BME280;41907;47.848;9.000;2023-04-15T03:59:31;94791.00;;;0.19;100.00
56038;BME280;41907;47.848;9.000;2023-04-15T04:01:56;94800.69;;;0.24;100.00
56038;BME280;41907;47.848;9.000;2023-04-15T04:04:21;94792.31;;;0.22;100.00
56038;BME280;41907;47.848;9.000;2023-04-15T04:06:46;94796.50;;;0.23;100.00
56038;BME280;41907;47.848;9.000;2023-04-15T04:09:12;94791.25;;;0.23;100.00
56038;BME280;41907;47.848;9.000;2023-04-15T04:11:37;94799.13;;;0.23;100.00
56038;BME280;41907;47.848;9.000;2023-04-15T04:14:02;94803.88;;;0.16;100.00
56038;BME280;41907;47.848;9.000;2023-04-15T04:16:27;94810.41;;;0.13;100.00
56038;BME280;41907;47.848;9.000;2023-04-15T04:18:52;94813.56;;;0.15;100.00
56038;BME280;41907;47.848;9.000;2023-04-15T04:21:18;94808.31;;;0.10;100.00
56038;BME280;41907;47.848;9.000;2023-04-15T04:23:43;94810.44;;;0.03;100.00
56038;BME280;41907;47.848;9.000;2023-04-15T04:26:09;94817.50;;;-0.08;100.00
56038;BME280;41907;47.848;9.000;2023-04-15T04:28:34;94816.47;;;-0.32;100.00
56038;BME280;41907;47.848;9.000;2023-04-15T04:31:00;94809.38;;;-0.37;100.00
56038;BME280;41907;47.848;9.000;2023-04-15T04:33:25;94817.78;;;-0.24;100.00
56038;BME280;41907;47.848;9.000;2023-04-15T04:35:51;94816.47;;;-0.32;100.00
56038;BME280;41907;47.848;9.000;2023-04-15T04:38:16;94814.38;;;-0.30;100.00
56038;BME280;41907;47.848;9.000;2023-04-15T04:40:41;94815.66;;;-0.27;100.00
56038;BME280;41907;47.848;9.000;2023-04-15T04:43:06;94807.28;;;-0.24;100.00
56038;BME280;41907;47.848;9.000;2023-04-15T04:45:32;94813.59;;;-0.15;100.00
56038;BME280;41907;47.848;9.000;2023-04-15T04:47:57;94812.53;;;-0.09;100.00
56038;BME280;41907;47.848;9.000;2023-04-15T04:50:22;94810.97;;;0.00;100.00
56038;BME280;41907;47.848;9.000;2023-04-15T04:52:47;94809.13;;;0.06;100.00
56038;BME280;41907;47.848;9.000;2023-04-15T04:55:13;94808.06;;;0.12;100.00
56038;BME280;41907;47.848;9.000;2023-04-15T04:57:38;94804.63;;;0.31;100.00
56038;BME280;41907;47.848;9.000;2023-04-15T05:00:04;94805.06;;;1.23;100.00
56038;BME280;41907;47.848;9.000;2023-04-15T05:02:29;94802.94;;;2.32;100.00
56038;BME280;41907;47.848;9.000;2023-04-15T05:04:56;94807.38;;;3.08;100.00
56038;BME280;41907;47.848;9.000;2023-04-15T05:07:21;94808.81;;;3.76;99.79
56038;BME280;41907;47.848;9.000;2023-04-15T05:09:46;94810.94;;;5.48;90.59
56038;BME280;41907;47.848;9.000;2023-04-15T05:12:12;94796.72;;;6.38;81.70
56038;BME280;41907;47.848;9.000;2023-04-15T05:14:39;94798.44;;;6.12;81.14
56038;BME280;41907;47.848;9.000;2023-04-15T05:17:04;94799.69;;;5.56;82.90
56038;BME280;41907;47.848;9.000;2023-04-15T05:19:29;94800.31;;;7.13;79.27
56038;BME280;41907;47.848;9.000;2023-04-15T05:21:55;94792.50;;;8.71;69.85
56038;BME280;41907;47.848;9.000;2023-04-15T05:24:20;94791.75;;;9.00;66.48
56038;BME280;41907;47.848;9.000;2023-04-15T05:26:46;94804.34;;;9.50;62.96
56038;BME280;41907;47.848;9.000;2023-04-15T05:29:11;94812.09;;;8.49;64.70
56038;BME280;41907;47.848;9.000;2023-04-15T05:31:36;94818.25;;;7.07;70.93
56038;BME280;41907;47.848;9.000;2023-04-15T05:34:02;94818.09;;;6.19;75.96
56038;BME280;41907;47.848;9.000;2023-04-15T05:36:27;94825.50;;;5.73;80.25
56038;BME280;41907;47.848;9.000;2023-04-15T05:38:52;94825.66;;;5.40;83.30
56038;BME280;41907;47.848;9.000;2023-04-15T05:41:18;94825.09;;;5.02;85.73
56038;BME280;41907;47.848;9.000;2023-04-15T05:43:43;94824.63;;;5.14;85.83
56038;BME280;41907;47.848;9.000;2023-04-15T05:46:08;94823.94;;;4.35;89.74
56038;BME280;41907;47.848;9.000;2023-04-15T05:48:34;94818.56;;;3.94;94.37
56038;BME280;41907;47.848;9.000;2023-04-15T05:50:59;94825.63;;;3.61;98.26
56038;BME280;41907;47.848;9.000;2023-04-15T05:53:25;94820.72;;;3.73;99.63
56038;BME280;41907;47.848;9.000;2023-04-15T05:55:50;94817.44;;;3.81;100.00
56038;BME280;41907;47.848;9.000;2023-04-15T05:58:16;94821.28;;;3.89;100.00
56038;BME280;41907;47.848;9.000;2023-04-15T06:00:41;94812.03;;;4.37;99.51
56038;BME280;41907;47.848;9.000;2023-04-15T06:03:06;94813.56;;;4.98;97.18
56038;BME280;41907;47.848;9.000;2023-04-15T06:05:31;94815.28;;;5.30;94.93
56038;BME280;41907;47.848;9.000;2023-04-15T06:07:57;94814.84;;;5.14;94.74
56038;BME280;41907;47.848;9.000;2023-04-15T06:10:22;94819.03;;;5.15;94.81
56038;BME280;41907;47.848;9.000;2023-04-15T06:12:47;94821.88;;;5.19;95.09
56038;BME280;41907;47.848;9.000;2023-04-15T06:15:13;94815.78;;;5.32;94.63
56038;BME280;41907;47.848;9.000;2023-04-15T06:17:38;94807.75;;;5.37;94.91
56038;BME280;41907;47.848;9.000;2023-04-15T06:20:03;94818.50;;;5.54;94.23
56038;BME280;41907;47.848;9.000;2023-04-15T06:22:29;94821.09;;;5.68;93.47
56038;BME280;41907;47.848;9.000;2023-04-15T06:24:54;94822.66;;;5.69;93.10
56038;BME280;41907;47.848;9.000;2023-04-15T06:27:19;94826.22;;;5.87;90.74
56038;BME280;41907;47.848;9.000;2023-04-15T06:29:45;94823.22;;;6.16;91.71
56038;BME280;41907;47.848;9.000;2023-04-15T06:32:10;94820.13;;;6.45;89.85
56038;BME280;41907;47.848;9.000;2023-04-15T06:34:36;94825.69;;;6.65;88.08
56038;BME280;41907;47.848;9.000;2023-04-15T06:37:01;94821.25;;;6.83;86.14
56038;BME280;41907;47.848;9.000;2023-04-15T06:39:26;94818.25;;;7.16;85.76
56038;BME280;41907;47.848;9.000;2023-04-15T06:41:52;94818.22;;;7.72;80.78
56038;BME280;41907;47.848;9.000;2023-04-15T06:44:17;94814.47;;;7.82;78.54
56038;BME280;41907;47.848;9.000;2023-04-15T06:46:42;94814.91;;;8.27;77.48
56038;BME280;41907;47.848;9.000;2023-04-15T06:49:08;94822.41;;;8.98;75.45
56038;BME280;41907;47.848;9.000;2023-04-15T06:51:34;94820.66;;;9.90;68.66
56038;BME280;41907;47.848;9.000;2023-04-15T06:53:59;94822.69;;;9.43;68.50
56038;BME280;41907;47.848;9.000;2023-04-15T06:56:26;94821.81;;;9.59;68.47
56038;BME280;41907;47.848;9.000;2023-04-15T06:58:51;94821.97;;;9.54;68.29
56038;BME280;41907;47.848;9.000;2023-04-15T07:01:16;94825.56;;;9.58;68.11
56038;BME280;41907;47.848;9.000;2023-04-15T07:03:42;94817.88;;;10.07;66.15
56038;BME280;41907;47.848;9.000;2023-04-15T07:06:07;94821.41;;;11.10;62.34
56038;BME280;41907;47.848;9.000;2023-04-15T07:08:33;94823.63;;;13.20;55.59
56038;BME280;41907;47.848;9.000;2023-04-15T07:10:59;94817.69;;;14.93;47.56
56038;BME280;41907;47.848;9.000;2023-04-15T07:13:24;94825.56;;;16.60;42.86
56038;BME280;41907;47.848;9.000;2023-04-15T07:15:50;94821.72;;;17.82;39.26
56038;BME280;41907;47.848;9.000;2023-04-15T07:18:15;94821.13;;;18.14;38.20
56038;BME280;41907;47.848;9.000;2023-04-15T07:20:40;94823.22;;;18.45;36.83
56038;BME280;41907;47.848;9.000;2023-04-15T07:23:05;94818.41;;;18.14;38.01
56038;BME280;41907;47.848;9.000;2023-04-15T07:25:31;94824.78;;;16.59;39.78
56038;BME280;41907;47.848;9.000;2023-04-15T07:27:56;94818.28;;;15.74;41.93
56038;BME280;41907;47.848;9.000;2023-04-15T07:30:21;94815.69;;;15.81;43.73
56038;BME280;41907;47.848;9.000;2023-04-15T07:32:47;94823.84;;;14.94;44.73
56038;BME280;41907;47.848;9.000;2023-04-15T07:35:12;94821.00;;;13.90;47.17
56038;BME280;41907;47.848;9.000;2023-04-15T07:37:38;94819.06;;;13.71;49.93
56038;BME280;41907;47.848;9.000;2023-04-15T07:40:04;94820.66;;;13.10;49.25
56038;BME280;41907;47.848;9.000;2023-04-15T07:42:30;94823.84;;;12.56;51.49
56038;BME280;41907;47.848;9.000;2023-04-15T07:44:56;94833.38;;;12.01;55.58
56038;BME280;41907;47.848;9.000;2023-04-15T07:47:21;94825.03;;;12.43;55.36
56038;BME280;41907;47.848;9.000;2023-04-15T07:49:46;94825.00;;;12.71;53.77
56038;BME280;41907;47.848;9.000;2023-04-15T07:52:11;94828.41;;;12.83;52.23
56038;BME280;41907;47.848;9.000;2023-04-15T07:54:37;94827.28;;;13.00;52.08
56038;BME280;41907;47.848;9.000;2023-04-15T07:57:02;94827.97;;;13.13;53.88
56038;BME280;41907;47.848;9.000;2023-04-15T07:59:28;94833.03;;;12.43;54.12
56038;BME280;41907;47.848;9.000;2023-04-15T08:01:55;94827.91;;;12.38;56.39
56038;BME280;41907;47.848;9.000;2023-04-15T08:04:20;94833.88;;;12.75;56.37
56038;BME280;41907;47.848;9.000;2023-04-15T08:06:46;94829.97;;;13.00;56.44
56038;BME280;41907;47.848;9.000;2023-04-15T08:09:13;94825.03;;;12.86;55.20
56038;BME280;41907;47.848;9.000;2023-04-15T08:11:39;94837.53;;;12.82;53.56
56038;BME280;41907;47.848;9.000;2023-04-15T08:14:04;94834.22;;;12.17;55.19
56038;BME280;41907;47.848;9.000;2023-04-15T08:16:29;94833.25;;;12.10;53.73
56038;BME280;41907;47.848;9.000;2023-04-15T08:18:55;94830.50;;;11.94;54.17
56038;BME280;41907;47.848;9.000;2023-04-15T08:21:20;94829.97;;;11.52;55.97
56038;BME280;41907;47.848;9.000;2023-04-15T08:23:47;94828.19;;;11.44;56.80
56038;BME280;41907;47.848;9.000;2023-04-15T08:26:14;94830.44;;;11.30;58.34
56038;BME280;41907;47.848;9.000;2023-04-15T08:28:40;94822.75;;;11.40;58.50
56038;BME280;41907;47.848;9.000;2023-04-15T08:31:05;94839.41;;;11.62;57.74
56038;BME280;41907;47.848;9.000;2023-04-15T08:33:31;94832.00;;;11.31;56.70
56038;BME280;41907;47.848;9.000;2023-04-15T08:35:56;94832.19;;;11.62;58.34
56038;BME280;41907;47.848;9.000;2023-04-15T08:38:22;94831.56;;;11.77;56.15
56038;BME280;41907;47.848;9.000;2023-04-15T08:40:47;94838.66;;;11.12;58.33
56038;BME280;41907;47.848;9.000;2023-04-15T08:43:14;94827.63;;;11.02;59.80
56038;BME280;41907;47.848;9.000;2023-04-15T08:45:42;94832.56;;;11.61;60.07
56038;BME280;41907;47.848;9.000;2023-04-15T08:48:08;94826.16;;;12.02;56.73
56038;BME280;41907;47.848;9.000;2023-04-15T08:50:37;94827.50;;;12.08;56.66
56038;BME280;41907;47.848;9.000;2023-04-15T08:53:03;94833.84;;;12.03;56.61
56038;BME280;41907;47.848;9.000;2023-04-15T08:55:29;94827.56;;;12.11;55.55
56038;BME280;41907;47.848;9.000;2023-04-15T08:58:00;94827.88;;;11.57;57.15
56038;BME280;41907;47.848;9.000;2023-04-15T09:00:26;94830.81;;;12.05;56.42
56038;BME280;41907;47.848;9.000;2023-04-15T09:02:53;94827.41;;;12.32;55.30
56038;BME280;41907;47.848;9.000;2023-04-15T09:05:18;94821.91;;;12.41;54.00
56038;BME280;41907;47.848;9.000;2023-04-15T09:07:45;94829.03;;;12.37;54.15
56038;BME280;41907;47.848;9.000;2023-04-15T09:10:10;94822.56;;;12.65;54.94
56038;BME280;41907;47.848;9.000;2023-04-15T09:12:36;94825.78;;;12.87;53.83
56038;BME280;41907;47.848;9.000;2023-04-15T09:15:02;94829.56;;;12.70;55.95
56038;BME280;41907;47.848;9.000;2023-04-15T09:17:27;94825.47;;;12.88;55.25
56038;BME280;41907;47.848;9.000;2023-04-15T09:22:33;94836.69;;;12.94;52.97
56038;BME280;41907;47.848;9.000;2023-04-15T09:24:59;94839.72;;;12.64;54.52
56038;BME280;41907;47.848;9.000;2023-04-15T09:27:24;94839.25;;;12.19;55.94
56038;BME280;41907;47.848;9.000;2023-04-15T09:29:50;94837.75;;;12.34;56.07
56038;BME280;41907;47.848;9.000;2023-04-15T09:32:15;94842.16;;;12.70;54.93
56038;BME280;41907;47.848;9.000;2023-04-15T09:34:40;94841.94;;;13.18;53.27
56038;BME280;41907;47.848;9.000;2023-04-15T09:37:06;94838.34;;;13.61;52.52
56038;BME280;41907;47.848;9.000;2023-04-15T09:39:44;94835.41;;;13.66;52.21
56038;BME280;41907;47.848;9.000;2023-04-15T09:42:11;94837.03;;;13.87;50.59
56038;BME280;41907;47.848;9.000;2023-04-15T09:44:36;94838.81;;;13.48;52.24
56038;BME280;41907;47.848;9.000;2023-04-15T09:47:01;94840.53;;;13.40;53.41
56038;BME280;41907;47.848;9.000;2023-04-15T09:49:27;94843.72;;;13.61;55.02
56038;BME280;41907;47.848;9.000;2023-04-15T09:51:56;94843.75;;;14.15;51.28
56038;BME280;41907;47.848;9.000;2023-04-15T09:54:22;94845.03;;;15.21;48.91
56038;BME280;41907;47.848;9.000;2023-04-15T09:56:47;94832.41;;;15.94;47.11
56038;BME280;41907;47.848;9.000;2023-04-15T09:59:12;94831.91;;;15.88;46.36
56038;BME280;41907;47.848;9.000;2023-04-15T10:01:38;94840.03;;;14.20;48.76
56038;BME280;41907;47.848;9.000;2023-04-15T10:04:05;94842.44;;;13.55;52.63
56038;BME280;41907;47.848;9.000;2023-04-15T10:06:30;94845.00;;;14.57;48.63
56038;BME280;41907;47.848;9.000;2023-04-15T10:08:56;94848.13;;;14.04;52.50
56038;BME280;41907;47.848;9.000;2023-04-15T10:11:21;94842.09;;;14.84;49.12
56038;BME280;41907;47.848;9.000;2023-04-15T10:13:48;94837.13;;;15.29;46.34
56038;BME280;41907;47.848;9.000;2023-04-15T10:16:14;94840.44;;;15.22;46.28
56038;BME280;41907;47.848;9.000;2023-04-15T10:18:44;94836.72;;;16.02;46.19
56038;BME280;41907;47.848;9.000;2023-04-15T10:21:10;94843.81;;;15.87;46.89
56038;BME280;41907;47.848;9.000;2023-04-15T10:23:36;94849.38;;;14.65;47.48
56038;BME280;41907;47.848;9.000;2023-04-15T10:26:03;94844.81;;;15.07;47.04
56038;BME280;41907;47.848;9.000;2023-04-15T10:28:28;94840.34;;;15.60;46.75
56038;BME280;41907;47.848;9.000;2023-04-15T10:30:54;94843.06;;;15.41;45.63
56038;BME280;41907;47.848;9.000;2023-04-15T10:33:21;94850.56;;;15.78;43.30
56038;BME280;41907;47.848;9.000;2023-04-15T10:35:47;94843.81;;;15.61;43.60
56038;BME280;41907;47.848;9.000;2023-04-15T10:41:18;94850.63;;;15.55;44.66
56038;BME280;41907;47.848;9.000;2023-04-15T10:43:54;94839.88;;;15.81;43.32
56038;BME280;41907;47.848;9.000;2023-04-15T10:46:20;94853.06;;;15.90;42.69
56038;BME280;41907;47.848;9.000;2023-04-15T10:48:49;94853.47;;;16.78;44.29
56038;BME280;41907;47.848;9.000;2023-04-15T10:51:15;94859.66;;;16.82;42.47
56038;BME280;41907;47.848;9.000;2023-04-15T10:53:41;94852.03;;;15.72;45.47
56038;BME280;41907;47.848;9.000;2023-04-15T10:56:07;94852.06;;;16.28;45.17
56038;BME280;41907;47.848;9.000;2023-04-15T10:58:41;94861.09;;;16.13;44.08
56038;BME280;41907;47.848;9.000;2023-04-15T11:01:07;94858.66;;;15.78;44.24
56038;BME280;41907;47.848;9.000;2023-04-15T11:03:36;94855.72;;;14.95;48.10
56038;BME280;41907;47.848;9.000;2023-04-15T11:06:04;94851.13;;;15.41;47.26
56038;BME280;41907;47.848;9.000;2023-04-15T11:11:14;94851.34;;;15.78;46.66
56038;BME280;41907;47.848;9.000;2023-04-15T11:13:46;94855.75;;;15.63;46.60
56038;BME280;41907;47.848;9.000;2023-04-15T11:16:12;94863.50;;;15.23;47.32
56038;BME280;41907;47.848;9.000;2023-04-15T11:18:37;94869.41;;;15.09;45.50
56038;BME280;41907;47.848;9.000;2023-04-15T11:21:04;94865.25;;;14.73;46.72
56038;BME280;41907;47.848;9.000;2023-04-15T11:23:37;94871.56;;;14.81;46.40
56038;BME280;41907;47.848;9.000;2023-04-15T11:26:03;94876.22;;;14.65;48.41
56038;BME280;41907;47.848;9.000;2023-04-15T11:28:31;94876.16;;;14.61;49.76
56038;BME280;41907;47.848;9.000;2023-04-15T11:30:56;94879.75;;;14.49;49.31
56038;BME280;41907;47.848;9.000;2023-04-15T11:33:22;94882.09;;;14.35;48.51
56038;BME280;41907;47.848;9.000;2023-04-15T11:35:48;94872.50;;;14.15;47.11
56038;BME280;41907;47.848;9.000;2023-04-15T11:38:13;94877.81;;;13.80;48.77
56038;BME280;41907;47.848;9.000;2023-04-15T11:40:40;94874.72;;;13.78;49.87
56038;BME280;41907;47.848;9.000;2023-04-15T11:43:09;94879.03;;;13.83;49.62
56038;BME280;41907;47.848;9.000;2023-04-15T11:45:35;94881.81;;;13.70;52.65
56038;BME280;41907;47.848;9.000;2023-04-15T11:48:07;94882.16;;;13.85;49.88
56038;BME280;41907;47.848;9.000;2023-04-15T11:50:33;94881.78;;;14.02;50.88
56038;BME280;41907;47.848;9.000;2023-04-15T11:52:59;94876.34;;;14.33;50.18
56038;BME280;41907;47.848;9.000;2023-04-15T11:55:25;94890.91;;;14.51;48.19
56038;BME280;41907;47.848;9.000;2023-04-15T11:58:24;94893.16;;;14.88;47.58
56038;BME280;41907;47.848;9.000;2023-04-15T12:01:00;94890.91;;;14.90;46.58
56038;BME280;41907;47.848;9.000;2023-04-15T12:03:30;94899.06;;;15.16;46.92
56038;BME280;41907;47.848;9.000;2023-04-15T12:06:03;94896.31;;;15.55;44.93
56038;BME280;41907;47.848;9.000;2023-04-15T12:11:16;94906.56;;;16.21;42.03
56038;BME280;41907;47.848;9.000;2023-04-15T12:13:46;94902.22;;;16.43;40.61
56038;BME280;41907;47.848;9.000;2023-04-15T12:16:11;94913.63;;;16.07;40.14
56038;BME280;41907;47.848;9.000;2023-04-15T12:18:37;94914.31;;;15.77;40.74
56038;BME280;41907;47.848;9.000;2023-04-15T12:21:12;94926.13;;;15.50;41.93
56038;BME280;41907;47.848;9.000;2023-04-15T12:23:37;94917.25;;;14.84;42.94
56038;BME280;41907;47.848;9.000;2023-04-15T12:26:06;94925.75;;;14.86;42.29
56038;BME280;41907;47.848;9.000;2023-04-15T12:28:33;94933.00;;;14.86;43.12
56038;BME280;41907;47.848;9.000;2023-04-15T12:30:58;94935.13;;;14.58;42.78
56038;BME280;41907;47.848;9.000;2023-04-15T12:33:31;94933.31;;;14.62;41.65
56038;BME280;41907;47.848;9.000;2023-04-15T12:35:56;94932.28;;;14.35;41.47
56038;BME280;41907;47.848;9.000;2023-04-15T12:38:22;94936.56;;;14.20;43.48
56038;BME280;41907;47.848;9.000;2023-04-15T12:40:47;94940.22;;;14.12;42.86
56038;BME280;41907;47.848;9.000;2023-04-15T12:43:12;94948.13;;;14.05;44.33
56038;BME280;41907;47.848;9.000;2023-04-15T12:45:37;94949.25;;;14.04;41.65
56038;BME280;41907;47.848;9.000;2023-04-15T12:48:03;94956.94;;;14.05;42.03
56038;BME280;41907;47.848;9.000;2023-04-15T12:50:28;94957.34;;;14.07;42.15
56038;BME280;41907;47.848;9.000;2023-04-15T12:52:53;94960.28;;;14.18;42.04
56038;BME280;41907;47.848;9.000;2023-04-15T12:55:18;94960.44;;;14.25;41.94
56038;BME280;41907;47.848;9.000;2023-04-15T12:57:44;94962.06;;;14.45;41.59
56038;BME280;41907;47.848;9.000;2023-04-15T13:00:09;94960.13;;;14.62;41.17
56038;BME280;41907;47.848;9.000;2023-04-15T13:02:34;94961.84;;;14.70;39.73
56038;BME280;41907;47.848;9.000;2023-04-15T13:05:00;94963.16;;;14.60;41.40